createdAt,value
2022-10-08T00:03:43.010Z,0
2022-10-08T00:09:05.888Z,0
2022-10-08T00:14:38.794Z,0
2022-10-08T00:20:01.491Z,0
2022-10-08T00:25:24.144Z,0
2022-10-08T00:30:53.041Z,0
2022-10-08T00:36:15.638Z,0
2022-10-08T00:41:38.144Z,0
2022-10-08T00:47:00.597Z,0
2022-10-08T00:52:23.350Z,0
2022-10-08T00:57:45.896Z,0
2022-10-08T01:03:08.877Z,0
2022-10-08T01:08:31.952Z,0
2022-10-08T01:13:54.698Z,0
2022-10-08T01:19:17.143Z,0
2022-10-08T01:24:40.060Z,0
2022-10-08T01:30:03.235Z,0
2022-10-08T01:35:33.718Z,0
2022-10-08T01:40:56.512Z,0
2022-10-08T01:57:10.565Z,0
2022-10-08T02:08:05.689Z,0
2022-10-08T02:13:27.968Z,0
2022-10-08T02:18:50.880Z,0
2022-10-08T02:24:13.350Z,0
2022-10-08T02:35:01.175Z,0
2022-10-08T02:40:23.602Z,1
2022-10-08T02:45:46.352Z,0
2022-10-08T02:51:09.394Z,0
2022-10-08T03:01:58.509Z,0
2022-10-08T03:12:48.030Z,0
2022-10-08T03:18:10.852Z,0
2022-10-08T03:23:35.668Z,0
2022-10-08T03:28:58.681Z,0
2022-10-08T03:45:06.305Z,0
2022-10-08T03:50:28.690Z,0
2022-10-08T03:55:53.881Z,0
2022-10-08T04:01:34.994Z,0
2022-10-08T04:07:00.703Z,0
2022-10-08T04:12:26.314Z,0
2022-10-08T04:17:48.576Z,0
2022-10-08T04:23:11.052Z,0
2022-10-08T04:28:48.602Z,0
2022-10-08T04:34:11.981Z,0
2022-10-08T04:39:34.093Z,0
2022-10-08T04:44:59.465Z,0
2022-10-08T04:50:22.390Z,0
2022-10-08T04:55:44.857Z,0
2022-10-08T05:01:07.090Z,0
2022-10-08T05:06:29.836Z,0
2022-10-08T05:11:52.780Z,0
2022-10-08T05:17:15.280Z,0
2022-10-08T05:22:37.724Z,3
2022-10-08T05:28:03.133Z,0
2022-10-08T05:44:13.656Z,15
2022-10-08T05:49:36.193Z,18
2022-10-08T05:55:01.006Z,29.1
2022-10-08T06:00:23.464Z,20.8
2022-10-08T06:06:06.911Z,35.3
2022-10-08T06:11:29.808Z,36.2
2022-10-08T06:16:52.325Z,36.6
2022-10-08T06:22:14.661Z,36.1
2022-10-08T06:27:40.058Z,37.1
2022-10-08T06:33:02.729Z,70.2
2022-10-08T06:38:27.701Z,70.3
2022-10-08T06:43:50.538Z,68.8
2022-10-08T06:49:13.558Z,95.1
2022-10-08T06:54:36.091Z,57.8
2022-10-08T06:59:58.893Z,49.9
2022-10-08T07:05:21.400Z,170.6
2022-10-08T07:10:47.539Z,58
2022-10-08T07:16:10.645Z,243.7
2022-10-08T07:21:33.585Z,191.6
2022-10-08T07:32:18.161Z,296
2022-10-08T07:37:41.428Z,949.8
2022-10-08T07:43:07.484Z,876.3
2022-10-08T07:48:34.718Z,667.6
2022-10-08T07:54:06.715Z,743
2022-10-08T07:59:29.173Z,647.7
2022-10-08T08:04:54.490Z,1308.8
2022-10-08T08:10:17.190Z,616.7
2022-10-08T08:15:39.339Z,2049.7
2022-10-08T08:21:02.333Z,2418.1
2022-10-08T08:26:26.245Z,1054.9
2022-10-08T08:31:49.224Z,2766.7
2022-10-08T08:37:11.647Z,3284.9
2022-10-08T08:42:36.222Z,297.1
2022-10-08T08:47:58.180Z,684.8
2022-10-08T08:53:20.839Z,1540.4
2022-10-08T08:58:45.679Z,1252.8
2022-10-08T09:04:08.226Z,712.1
2022-10-08T09:09:33.112Z,913.2
2022-10-08T09:20:26.440Z,693.2
2022-10-08T09:25:49.344Z,752.6
2022-10-08T09:31:22.360Z,5510.6
2022-10-08T09:36:47.160Z,4791.8
2022-10-08T09:43:05.336Z,3098.9
2022-10-08T09:48:25.185Z,4318.2
2022-10-08T09:53:49.770Z,4091.7
2022-10-08T09:59:13.093Z,4072.2
2022-10-08T10:04:37.035Z,4211.2
2022-10-08T10:09:58.323Z,3570.8
2022-10-08T10:15:20.709Z,3168.7
2022-10-08T10:20:44.543Z,3482.7
2022-10-08T10:26:07.505Z,3334.8
2022-10-08T10:31:30.568Z,974.8
2022-10-08T10:36:52.460Z,628.4
2022-10-08T10:42:13.991Z,299.6
2022-10-08T10:47:35.629Z,322
2022-10-08T10:52:57.922Z,203.2
2022-10-08T10:58:20.061Z,2732.8
2022-10-08T11:20:04.322Z,4275.6
2022-10-08T11:25:28.136Z,3545.8
2022-10-08T11:30:47.972Z,501.9
2022-10-08T11:36:09.097Z,282.5
2022-10-08T11:41:30.977Z,306.1
2022-10-08T11:46:58.421Z,3150.2
2022-10-08T11:52:23.182Z,3721.3
2022-10-08T11:58:09.633Z,2642.9
2022-10-08T12:03:32.366Z,875.8
2022-10-08T12:08:54.342Z,4078
2022-10-08T12:14:15.650Z,1954.3
2022-10-08T12:19:41.169Z,3548.5
2022-10-08T12:25:05.136Z,3235.1
2022-10-08T12:30:26.351Z,3124
2022-10-08T12:35:51.814Z,502.1
2022-10-08T12:41:36.066Z,3336.1
2022-10-08T12:57:43.604Z,267.4
2022-10-08T13:03:07.594Z,2623.7
2022-10-08T13:08:34.982Z,2578.4
2022-10-08T13:14:09.635Z,2452.3
2022-10-08T13:19:33.382Z,2451.2
2022-10-08T13:24:56.125Z,2411.6
2022-10-08T13:30:18.864Z,2269.5
2022-10-08T13:35:47.863Z,2426.9
2022-10-08T13:41:11.298Z,2524.4
2022-10-08T13:46:34.631Z,2129.8
2022-10-08T13:51:57.537Z,2103.9
2022-10-08T13:57:29.857Z,2170.1
2022-10-08T14:02:52.468Z,2116.5
2022-10-08T14:08:15.095Z,2183.2
2022-10-08T14:13:37.327Z,1989.2
2022-10-08T14:19:04.964Z,1998.5
2022-10-08T14:35:14.480Z,1726.1
2022-10-08T14:41:58.198Z,1456.6
2022-10-08T14:47:21.027Z,416.3
2022-10-08T14:52:52.830Z,268.1
2022-10-08T15:04:15.293Z,137.7
2022-10-08T15:15:00.449Z,111.9
2022-10-08T15:20:25.695Z,104.9
2022-10-08T15:25:57.501Z,102.3
2022-10-08T15:31:20.526Z,94.9
2022-10-08T15:36:43.075Z,91.5
2022-10-08T15:47:31.629Z,89.3
2022-10-08T15:52:54.143Z,77.6
2022-10-08T15:58:51.682Z,71.2
2022-10-08T16:04:14.654Z,64
2022-10-08T16:15:02.230Z,57.5
2022-10-08T16:20:24.846Z,56.7
2022-10-08T16:25:47.830Z,53
2022-10-08T16:31:10.611Z,49.8
2022-10-08T17:14:54.772Z,52.7
2022-10-08T17:25:40.231Z,0
2022-10-08T17:31:08.611Z,0
2022-10-08T17:36:31.204Z,0
2022-10-08T17:41:53.871Z,0
2022-10-08T17:52:42.928Z,0
2022-10-08T17:58:05.693Z,0
2022-10-08T18:03:27.931Z,0
2022-10-08T18:08:51.091Z,0
2022-10-08T18:24:51.805Z,0
2022-10-08T18:30:16.509Z,0
2022-10-08T18:35:38.982Z,0
2022-10-08T18:46:12.737Z,0
2022-10-08T18:51:35.648Z,0
2022-10-08T19:02:24.058Z,0
2022-10-08T19:07:47.801Z,0
2022-10-08T19:13:10.093Z,0
2022-10-08T19:18:33.070Z,0
2022-10-08T19:23:55.749Z,0
2022-10-08T19:29:18.536Z,0
2022-10-08T19:34:41.292Z,0
2022-10-08T19:40:04.090Z,0
2022-10-08T19:45:26.794Z,0
2022-10-08T19:50:55.596Z,0
2022-10-08T19:56:18.835Z,0
2022-10-08T20:01:42.345Z,0
2022-10-08T20:07:08.938Z,0
2022-10-08T20:17:56.957Z,0
2022-10-08T20:23:19.910Z,0
2022-10-08T20:28:42.765Z,0
2022-10-08T20:34:05.794Z,0
2022-10-08T20:39:28.129Z,0
2022-10-08T20:44:51.570Z,0
2022-10-08T20:50:14.210Z,0
2022-10-08T20:55:37.205Z,0
2022-10-08T21:00:59.747Z,0
2022-10-08T21:06:22.486Z,0
2022-10-08T21:11:47.793Z,0
2022-10-08T21:17:10.297Z,0
2022-10-08T21:22:32.910Z,0
2022-10-08T21:27:58.254Z,0
2022-10-08T21:33:21.345Z,0
2022-10-08T21:38:43.975Z,1
2022-10-08T21:44:24.057Z,0
2022-10-08T21:49:47.622Z,0
2022-10-08T21:55:31.475Z,0
2022-10-08T22:00:55.190Z,0
2022-10-08T22:06:27.974Z,0
2022-10-08T22:17:14.838Z,0
2022-10-08T22:22:37.360Z,0
2022-10-08T22:27:59.994Z,0
2022-10-08T22:33:22.520Z,0
2022-10-08T22:39:05.808Z,1
2022-10-08T22:44:28.466Z,0
2022-10-08T22:49:51.257Z,0
2022-10-08T22:55:13.491Z,0
2022-10-08T23:00:38.266Z,0
2022-10-08T23:06:00.950Z,0
2022-10-08T23:11:30.928Z,0
2022-10-08T23:16:54.088Z,0
2022-10-08T23:22:16.694Z,0
2022-10-08T23:27:38.900Z,0
2022-10-08T23:33:01.187Z,0
2022-10-08T23:38:23.790Z,0
2022-10-08T23:43:53.798Z,0
2022-10-08T23:49:16.205Z,0
2022-10-08T23:54:38.943Z,0
